Time;durP1;ratioP1;P1;durP2;ratioP2;P2;SDS_P1;SDS_P2;PMS_P1;PMS_P2;Temp;Humidity;BMP_temperature;BMP_pressure;BME280_temperature;BME280_humidity;BME280_pressure;Samples;Min_cycle;Max_cycle;Signal;HPM_P1;HPM_P2
2023/07/16 00:02:06;;;;;;;1.23;0.63;;;;;;;20.11;84.61;95512.28;5073005;28;20216;-79
2023/07/16 00:04:32;;;;;;;1.40;0.60;;;;;;;20.02;84.72;95518.81;5085501;28;20204;-81
2023/07/16 00:06:59;;;;;;;0.70;0.70;;;;;;;20.02;84.21;95519.63;5062998;28;20256;-79
2023/07/16 00:09:24;;;;;;;0.70;0.70;;;;;;;20.09;84.19;95532.78;5060009;28;20193;-79
2023/07/16 00:11:49;;;;;;;0.85;0.68;;;;;;;20.05;84.85;95536.84;5057392;28;20274;-80
2023/07/16 00:14:15;;;;;;;1.17;0.82;;;;;;;20.03;85.12;95528.31;5078998;28;20187;-79
2023/07/16 00:16:40;;;;;;;1.10;0.80;;;;;;;19.96;83.92;95498.53;5068140;28;20188;-79
2023/07/16 00:19:05;;;;;;;1.73;0.80;;;;;;;20.03;84.06;95492.22;5072421;28;20223;-79
2023/07/16 00:21:31;;;;;;;1.05;0.93;;;;;;;19.90;83.83;95504.66;5077111;28;20208;-79
2023/07/16 00:23:56;;;;;;;0.80;0.65;;;;;;;19.89;84.06;95493.31;5097866;28;20187;-80
2023/07/16 00:26:22;;;;;;;1.20;0.95;;;;;;;19.71;82.84;95516.84;5093846;28;20180;-80
2023/07/16 00:28:47;;;;;;;2.20;0.90;;;;;;;19.48;84.32;95491.72;5072728;28;20230;-79
2023/07/16 00:31:12;;;;;;;1.45;1.00;;;;;;;19.36;83.49;95490.72;5066438;28;20209;-78
2023/07/16 00:33:38;;;;;;;0.90;0.85;;;;;;;19.50;83.52;95510.75;5065997;28;20185;-79
2023/07/16 00:36:03;;;;;;;1.02;0.90;;;;;;;19.59;84.10;95507.94;5081466;28;20173;-79
2023/07/16 00:38:29;;;;;;;1.27;0.90;;;;;;;19.30;84.43;95504.69;5084583;28;20209;-81
2023/07/16 00:40:55;;;;;;;1.58;1.00;;;;;;;19.43;82.70;95499.41;5087939;28;20207;-80
2023/07/16 00:43:20;;;;;;;1.02;0.95;;;;;;;19.49;82.54;95500.41;5085181;28;20189;-79
2023/07/16 00:45:46;;;;;;;1.65;1.10;;;;;;;19.16;79.75;95503.03;5081259;28;20602;-78
2023/07/16 00:48:12;;;;;;;1.30;1.02;;;;;;;19.00;79.69;95506.91;5062664;28;20197;-78
2023/07/16 00:50:39;;;;;;;1.40;1.10;;;;;;;19.32;79.22;95518.44;5065212;28;20180;-78
2023/07/16 00:53:06;;;;;;;1.35;1.23;;;;;;;18.96;79.87;95537.25;5068027;28;20207;-78
2023/07/16 00:55:32;;;;;;;0.93;0.90;;;;;;;19.13;80.52;95554.28;5074002;28;20191;-78
2023/07/16 00:58:02;;;;;;;2.47;1.27;;;;;;;18.96;80.11;95550.41;5094584;28;20574;-80
2023/07/16 01:00:28;;;;;;;3.67;1.27;;;;;;;18.92;79.86;95541.28;5096377;28;20702;-79
2023/07/16 01:02:53;;;;;;;1.38;1.10;;;;;;;18.99;78.68;95533.38;5072941;28;20295;-79
2023/07/16 01:05:18;;;;;;;1.23;1.13;;;;;;;19.05;78.94;95543.13;5085813;28;20604;-79
2023/07/16 01:07:51;;;;;;;1.95;1.30;;;;;;;18.99;77.58;95538.66;5080814;28;20713;-79
2023/07/16 01:10:17;;;;;;;1.70;1.40;;;;;;;18.94;77.40;95536.63;5060065;28;20195;-80
2023/07/16 01:12:43;;;;;;;1.80;1.50;;;;;;;18.89;76.68;95550.38;5058645;28;20212;-80
2023/07/16 01:15:08;;;;;;;3.45;1.10;;;;;;;18.78;76.83;95531.75;5065236;28;20188;-79
2023/07/16 01:17:34;;;;;;;2.53;1.30;;;;;;;18.68;77.22;95518.97;5087261;28;20244;-79
2023/07/16 01:19:59;;;;;;;2.75;1.30;;;;;;;18.58;77.83;95518.50;5069110;28;20201;-78
2023/07/16 01:22:40;;;;;;;3.67;1.73;;;;;;;18.71;78.10;95547.50;5092395;28;20204;-80
2023/07/16 01:25:25;;;;;;;2.75;1.40;;;;;;;18.72;77.09;95559.63;5080388;28;20180;-78
2023/07/16 01:28:11;;;;;;;1.50;1.40;;;;;;;18.84;77.59;95594.09;5066068;28;20195;-79
2023/07/16 01:30:38;;;;;;;1.45;1.30;;;;;;;18.75;78.73;95601.34;5067304;28;20188;-79
2023/07/16 01:33:04;;;;;;;3.65;1.50;;;;;;;18.62;78.50;95583.66;5073642;28;20191;-79
2023/07/16 01:35:29;;;;;;;1.98;1.50;;;;;;;18.70;79.73;95551.13;5094789;28;20184;-79
2023/07/16 01:37:55;;;;;;;1.70;1.60;;;;;;;18.75;79.68;95543.47;5094050;28;20685;-79
2023/07/16 01:40:20;;;;;;;1.40;1.30;;;;;;;18.55;80.45;95546.03;5072519;28;20204;-78
2023/07/16 01:42:46;;;;;;;1.65;1.55;;;;;;;18.54;80.57;95547.00;5085699;28;20211;-79
2023/07/16 01:45:11;;;;;;;3.15;1.40;;;;;;;18.45;80.27;95550.81;5084216;28;20181;-79
2023/07/16 01:48:01;;;;;;;2.15;1.42;;;;;;;18.64;80.85;95551.88;5062709;28;20264;-80
2023/07/16 01:50:27;;;;;;;2.95;1.60;;;;;;;18.35;81.22;95585.34;5091324;28;20184;-79
2023/07/16 01:52:52;;;;;;;1.95;1.35;;;;;;;18.55;80.41;95603.03;5089708;28;20211;-78
2023/07/16 01:55:17;;;;;;;3.33;1.65;;;;;;;18.47;81.30;95611.94;5068666;28;20188;-80
2023/07/16 01:57:43;;;;;;;2.35;1.40;;;;;;;18.68;80.23;95609.22;5064399;28;20192;-79
2023/07/16 02:00:08;;;;;;;3.13;1.40;;;;;;;18.60;80.13;95611.16;5060732;28;20208;-79
2023/07/16 02:02:34;;;;;;;1.85;1.33;;;;;;;18.77;78.65;95593.25;5077718;28;20212;-80
2023/07/16 02:04:59;;;;;;;1.77;1.27;;;;;;;18.71;78.92;95586.94;5082341;28;20214;-79
2023/07/16 02:07:24;;;;;;;1.65;1.55;;;;;;;18.46;79.75;95593.69;5069576;28;20187;-78
2023/07/16 02:09:50;;;;;;;1.60;1.20;;;;;;;18.51;79.64;95601.81;5080545;28;20201;-79
2023/07/16 02:12:15;;;;;;;2.60;1.50;;;;;;;18.25;79.42;95603.28;5076367;28;20197;-79
2023/07/16 02:14:40;;;;;;;7.90;2.53;;;;;;;18.29;79.36;95586.16;5080833;28;20192;-79
2023/07/16 02:17:06;;;;;;;2.22;1.27;;;;;;;18.27;77.75;95580.25;5066094;28;20276;-79
2023/07/16 02:19:31;;;;;;;1.38;1.23;;;;;;;18.26;76.57;95581.25;5067996;28;20214;-80
2023/07/16 02:21:56;;;;;;;2.42;1.27;;;;;;;17.86;75.45;95590.72;5064371;28;20613;-79
2023/07/16 02:24:22;;;;;;;3.92;1.45;;;;;;;17.85;75.39;95585.69;5079201;28;20678;-79
2023/07/16 02:26:47;;;;;;;2.13;1.20;;;;;;;17.89;76.13;95600.84;5061554;28;20185;-80
2023/07/16 02:29:12;;;;;;;2.08;1.70;;;;;;;17.87;75.47;95602.84;5081123;28;20204;-79
2023/07/16 02:31:38;;;;;;;2.17;1.50;;;;;;;18.01;75.12;95607.19;5085150;28;20323;-79
2023/07/16 02:34:03;;;;;;;3.65;1.30;;;;;;;18.18;75.80;95622.66;5090069;28;20272;-79
2023/07/16 02:36:28;;;;;;;4.40;1.52;;;;;;;18.05;75.94;95637.34;5077517;28;20191;-80
2023/07/16 02:38:53;;;;;;;2.45;1.40;;;;;;;18.01;76.64;95630.03;5077363;28;20197;-79
2023/07/16 02:41:19;;;;;;;2.20;1.63;;;;;;;17.91;76.56;95606.72;5088722;28;20262;-78
2023/07/16 02:43:45;;;;;;;1.55;1.45;;;;;;;17.92;76.26;95610.16;5085256;28;20192;-79
2023/07/16 02:46:11;;;;;;;3.08;1.45;;;;;;;17.91;76.05;95613.78;5063351;28;20204;-78
2023/07/16 02:48:36;;;;;;;2.53;1.67;;;;;;;17.40;77.00;95613.94;5077187;28;20566;-79
2023/07/16 02:51:01;;;;;;;5.88;1.90;;;;;;;17.70;76.44;95609.41;5077500;28;20687;-78
2023/07/16 02:53:26;;;;;;;4.07;1.85;;;;;;;17.82;76.29;95599.97;5082812;28;20277;-78
2023/07/16 02:55:52;;;;;;;5.15;1.90;;;;;;;17.86;76.94;95588.09;5086802;28;20223;-78
2023/07/16 02:58:17;;;;;;;2.38;1.80;;;;;;;17.92;76.51;95589.13;5073498;28;20192;-77
2023/07/16 03:00:42;;;;;;;2.63;1.80;;;;;;;17.92;76.47;95599.66;5077432;28;20203;-80
2023/07/16 03:03:08;;;;;;;2.88;1.90;;;;;;;17.94;76.03;95602.91;5093928;28;20282;-80
2023/07/16 03:05:33;;;;;;;4.85;1.55;;;;;;;17.84;75.76;95613.72;5073150;28;20191;-80
2023/07/16 03:07:58;;;;;;;7.68;2.80;;;;;;;17.80;76.95;95623.00;5090374;28;20176;-79
2023/07/16 03:10:26;;;;;;;6.22;1.75;;;;;;;17.72;76.96;95620.50;5068017;28;20564;-79
2023/07/16 03:12:51;;;;;;;2.83;1.95;;;;;;;17.51;77.86;95629.19;5065137;28;20201;-79
2023/07/16 03:15:17;;;;;;;6.63;2.00;;;;;;;17.25;79.33;95633.19;5066208;28;20204;-78
2023/07/16 03:17:42;;;;;;;4.18;1.80;;;;;;;17.34;79.05;95622.59;5069520;28;20220;-79
2023/07/16 03:20:08;;;;;;;3.42;1.90;;;;;;;17.16;80.49;95615.94;5090496;28;20209;-78
2023/07/16 03:22:33;;;;;;;4.18;2.03;;;;;;;17.53;79.05;95617.50;5095505;28;20205;-79
2023/07/16 03:24:59;;;;;;;7.07;2.10;;;;;;;17.62;78.27;95610.31;5098526;28;20639;-80
2023/07/16 03:27:24;;;;;;;5.03;2.50;;;;;;;17.83;77.79;95623.44;5081176;28;20189;-78
2023/07/16 03:29:49;;;;;;;4.78;1.80;;;;;;;17.85;77.07;95630.34;5077605;28;20183;-79
2023/07/16 03:32:15;;;;;;;2.78;1.75;;;;;;;17.67;77.57;95628.94;5089289;28;20197;-77
2023/07/16 03:34:40;;;;;;;4.20;2.10;;;;;;;17.79;76.19;95632.69;5086452;28;20218;-78
2023/07/16 03:37:06;;;;;;;2.15;1.63;;;;;;;17.66;77.35;95629.91;5083446;28;20242;-79
2023/07/16 03:39:31;;;;;;;3.20;2.08;;;;;;;17.81;77.51;95638.56;5065883;28;20293;-79
2023/07/16 03:41:56;;;;;;;4.72;2.05;;;;;;;17.88;76.57;95646.50;5088065;28;20756;-79
2023/07/16 03:44:21;;;;;;;4.65;1.77;;;;;;;17.87;76.93;95651.97;5075629;28;20275;-79
2023/07/16 03:46:47;;;;;;;5.93;2.17;;;;;;;17.67;76.87;95663.09;5079253;28;20291;-79
2023/07/16 03:49:12;;;;;;;5.07;2.00;;;;;;;17.51;77.71;95660.72;5100384;28;20196;-78
2023/07/16 03:51:37;;;;;;;3.80;1.88;;;;;;;17.66;77.74;95673.75;5098849;28;20204;-79
2023/07/16 03:54:03;;;;;;;7.72;2.00;;;;;;;17.17;78.22;95682.38;5096857;28;20298;-80
2023/07/16 03:56:28;;;;;;;6.05;2.50;;;;;;;17.46;78.50;95694.56;5091848;28;20544;-79
2023/07/16 03:58:54;;;;;;;8.52;2.22;;;;;;;17.09;79.05;95698.22;5088012;28;20253;-79
2023/07/16 04:01:19;;;;;;;7.85;2.15;;;;;;;17.20;78.90;95700.34;5066942;28;20209;-79
2023/07/16 04:03:44;;;;;;;6.78;2.13;;;;;;;17.22;78.76;95714.09;5083939;28;20551;-77
2023/07/16 04:06:12;;;;;;;5.68;2.10;;;;;;;17.39;78.19;95709.44;5072258;28;20607;-79
2023/07/16 04:08:38;;;;;;;4.53;2.47;;;;;;;17.48;78.24;95703.06;5091737;28;20189;-79
2023/07/16 04:11:04;;;;;;;5.93;2.10;;;;;;;17.41;78.17;95700.41;5096653;28;20228;-78
2023/07/16 04:13:29;;;;;;;4.07;2.20;;;;;;;17.18;78.12;95695.28;5100653;28;20184;-80
2023/07/16 04:15:55;;;;;;;8.43;2.33;;;;;;;17.21;77.71;95680.97;5083364;28;20193;-77
2023/07/16 04:18:21;;;;;;;5.13;2.85;;;;;;;17.40;77.25;95680.38;5079889;28;20196;-78
2023/07/16 04:20:47;;;;;;;6.38;2.42;;;;;;;17.58;76.37;95693.09;5088849;28;20181;-79
2023/07/16 04:23:12;;;;;;;3.30;2.03;;;;;;;17.30;77.46;95686.94;5088026;28;20208;-80
2023/07/16 04:25:38;;;;;;;5.38;2.15;;;;;;;17.46;76.54;95684.88;5083599;28;20211;-79
2023/07/16 04:28:03;;;;;;;8.63;2.42;;;;;;;17.45;77.30;95685.06;5084103;28;20247;-78
2023/07/16 04:30:29;;;;;;;7.32;1.85;;;;;;;17.33;77.98;95694.44;5087775;28;20184;-78
2023/07/16 04:32:54;;;;;;;5.15;2.08;;;;;;;17.47;78.19;95698.81;5091467;28;20212;-77
2023/07/16 04:35:20;;;;;;;14.45;3.70;;;;;;;17.65;77.51;95712.34;5097147;28;20178;-78
2023/07/16 04:37:45;;;;;;;6.68;2.22;;;;;;;17.52;76.70;95720.09;5084728;28;20623;-79
2023/07/16 04:40:10;;;;;;;3.17;2.10;;;;;;;17.50;76.06;95732.59;5083734;28;20262;-80
2023/07/16 04:42:36;;;;;;;5.40;2.22;;;;;;;17.47;76.16;95733.75;5096812;28;20764;-78
2023/07/16 04:45:01;;;;;;;5.60;2.17;;;;;;;17.31;76.49;95733.97;5093200;28;20507;-78
2023/07/16 04:47:26;;;;;;;7.22;2.58;;;;;;;17.17;76.90;95737.47;5089951;28;20181;-77
2023/07/16 04:49:52;;;;;;;7.45;2.20;;;;;;;17.37;76.70;95733.25;5068787;28;20563;-78
2023/07/16 04:52:17;;;;;;;5.60;2.28;;;;;;;17.11;76.60;95752.13;5083087;28;20262;-78
2023/07/16 04:54:42;;;;;;;5.80;2.03;;;;;;;17.33;76.51;95757.44;5072372;28;20189;-79
2023/07/16 04:57:08;;;;;;;3.63;2.00;;;;;;;17.23;75.59;95760.38;5076364;28;20184;-78
2023/07/16 04:59:34;;;;;;;6.28;2.72;;;;;;;17.34;75.10;95759.06;5079860;28;20281;-78
2023/07/16 05:01:59;;;;;;;4.93;2.30;;;;;;;17.31;74.99;95764.66;5099546;28;20243;-78
2023/07/16 05:04:24;;;;;;;4.07;2.08;;;;;;;17.18;75.79;95766.16;5083512;28;20224;-79
2023/07/16 05:06:52;;;;;;;9.05;2.22;;;;;;;17.32;75.16;95753.19;5096748;28;20177;-79
2023/07/16 05:09:17;;;;;;;7.28;2.17;;;;;;;17.53;75.13;95753.22;5092131;28;20192;-79
2023/07/16 05:11:42;;;;;;;5.88;1.80;;;;;;;17.61;74.54;95766.25;5070841;28;20204;-78
2023/07/16 05:14:07;;;;;;;5.88;2.10;;;;;;;17.61;73.68;95762.81;5067743;28;20195;-77
2023/07/16 05:16:33;;;;;;;9.70;1.98;;;;;;;17.57;73.88;95749.22;5067595;28;20207;-78
2023/07/16 05:18:58;;;;;;;6.75;1.90;;;;;;;17.86;72.54;95758.03;5071587;28;20205;-79
2023/07/16 05:21:23;;;;;;;7.88;2.47;;;;;;;17.92;72.35;95752.03;5074704;28;20200;-78
2023/07/16 05:23:49;;;;;;;6.53;1.88;;;;;;;18.01;71.66;95756.13;5079753;28;20177;-79
2023/07/16 05:26:14;;;;;;;4.30;2.10;;;;;;;18.21;70.59;95759.78;5099806;28;20267;-78
2023/07/16 05:28:39;;;;;;;4.78;2.05;;;;;;;18.62;69.52;95770.38;5083121;28;20200;-78
2023/07/16 05:31:05;;;;;;;4.68;1.63;;;;;;;18.88;68.17;95769.78;5094491;28;20258;-80
2023/07/16 05:33:30;;;;;;;6.20;2.00;;;;;;;19.46;66.91;95762.38;5092511;28;20184;-80
2023/07/16 05:35:56;;;;;;;3.70;1.77;;;;;;;21.00;59.72;95772.03;5088354;28;20188;-79
2023/07/16 05:38:21;;;;;;;5.88;1.85;;;;;;;21.66;56.65;95777.13;5067375;28;20185;-80
2023/07/16 05:40:46;;;;;;;6.32;1.63;;;;;;;20.46;59.46;95771.28;5081560;28;20185;-79
2023/07/16 05:43:13;;;;;;;5.88;1.70;;;;;;;20.61;60.23;95766.63;5069638;28;20647;-78
2023/07/16 05:45:38;;;;;;;4.68;2.05;;;;;;;20.40;60.04;95766.78;5075808;28;20234;-78
2023/07/16 05:48:04;;;;;;;5.55;1.83;;;;;;;19.78;62.40;95771.38;5086109;28;20200;-78
2023/07/16 05:50:29;;;;;;;4.22;2.25;;;;;;;19.53;62.87;95776.38;5106942;28;20207;-78
2023/07/16 05:52:54;;;;;;;4.78;2.10;;;;;;;19.49;63.94;95782.22;5107520;28;20197;-80
2023/07/16 05:55:20;;;;;;;5.50;2.00;;;;;;;19.41;64.45;95777.94;5086666;28;20185;-80
2023/07/16 05:57:45;;;;;;;5.57;1.88;;;;;;;18.81;65.92;95771.53;5079512;28;20663;-79
2023/07/16 06:00:11;;;;;;;6.90;2.20;;;;;;;18.98;65.88;95777.31;5057297;28;20217;-79
2023/07/16 06:02:36;;;;;;;8.40;2.38;;;;;;;19.21;65.87;95784.94;5106604;28;20208;-80
2023/07/16 06:05:01;;;;;;;4.50;1.80;;;;;;;18.77;66.64;95780.03;5090116;28;20196;-80
2023/07/16 06:07:27;;;;;;;4.35;1.85;;;;;;;19.13;65.44;95777.19;5103864;28;20185;-79
2023/07/16 06:09:52;;;;;;;4.80;2.10;;;;;;;19.24;65.83;95795.06;5081613;28;20250;-80
2023/07/16 06:12:17;;;;;;;5.32;1.60;;;;;;;19.26;64.94;95798.34;5076715;28;20212;-78
2023/07/16 06:14:43;;;;;;;5.70;1.80;;;;;;;19.51;63.90;95794.16;5088854;28;20189;-78
2023/07/16 06:17:08;;;;;;;4.35;1.95;;;;;;;19.38;64.65;95780.97;5069271;28;20189;-78
2023/07/16 06:19:34;;;;;;;4.35;2.10;;;;;;;19.23;65.03;95798.72;5089373;28;20620;-80
2023/07/16 06:21:59;;;;;;;9.15;2.10;;;;;;;19.30;64.21;95794.28;5090032;28;20219;-79
2023/07/16 06:24:24;;;;;;;4.40;2.10;;;;;;;20.10;62.40;95795.38;5072599;28;20183;-79
2023/07/16 06:26:50;;;;;;;4.38;2.00;;;;;;;20.88;58.28;95790.34;5070702;28;20652;-81
2023/07/16 06:29:15;;;;;;;7.80;1.95;;;;;;;21.84;55.07;95798.38;5098754;28;20658;-78
2023/07/16 06:31:42;;;;;;;5.65;1.63;;;;;;;21.60;55.60;95791.16;5079361;28;20211;-79
2023/07/16 06:34:07;;;;;;;3.88;1.90;;;;;;;21.78;55.51;95792.09;5076496;28;20205;-77
2023/07/16 06:36:33;;;;;;;3.80;1.80;;;;;;;21.65;54.52;95799.28;5089110;28;20252;-83
2023/07/16 06:39:00;;;;;;;2.60;1.75;;;;;;;21.53;55.20;95799.13;5072862;28;20217;-83
2023/07/16 06:41:25;;;;;;;5.38;1.70;;;;;;;21.70;55.58;95794.97;5055231;28;20643;-84
2023/07/16 06:43:51;;;;;;;6.22;2.05;;;;;;;22.04;53.05;95798.25;5064201;28;20223;-83
2023/07/16 06:46:16;;;;;;;4.32;1.70;;;;;;;22.56;52.16;95802.41;5091954;28;20252;-80
2023/07/16 06:48:41;;;;;;;7.78;1.75;;;;;;;22.04;53.25;95798.25;5072573;28;20263;-83
2023/07/16 06:51:06;;;;;;;5.13;1.63;;;;;;;23.07;50.58;95808.50;5093190;28;21143;-79
2023/07/16 06:53:33;;;;;;;3.70;1.85;;;;;;;25.42;44.97;95816.16;5106519;28;20650;-78
2023/07/16 06:55:58;;;;;;;7.40;1.90;;;;;;;26.70;42.48;95814.06;5086635;28;20241;-78
2023/07/16 06:58:32;;;;;;;2.67;1.50;;;;;;;26.71;40.80;95816.50;5082811;28;20213;-78
2023/07/16 07:00:57;;;;;;;3.45;1.60;;;;;;;26.11;42.02;95809.03;5091281;28;20231;-79
2023/07/16 07:03:22;;;;;;;5.30;1.85;;;;;;;25.31;43.76;95804.50;5090365;28;20913;-79
2023/07/16 07:05:48;;;;;;;5.10;1.77;;;;;;;26.19;41.54;95798.00;5072705;28;20231;-77
2023/07/16 07:08:13;;;;;;;5.30;1.60;;;;;;;26.65;39.75;95796.13;5093132;28;20211;-78
2023/07/16 07:10:39;;;;;;;3.83;1.70;;;;;;;26.45;40.73;95801.94;5095884;28;20552;-79
2023/07/16 07:13:04;;;;;;;3.72;1.70;;;;;;;25.41;41.50;95804.72;5084394;28;20180;-79
2023/07/16 07:15:30;;;;;;;9.80;1.90;;;;;;;24.90;43.48;95807.28;5088300;28;20176;-78
2023/07/16 07:17:55;;;;;;;5.35;2.10;;;;;;;23.64;45.90;95803.81;5080752;28;20188;-81
2023/07/16 07:20:20;;;;;;;3.28;1.50;;;;;;;23.42;48.19;95806.91;5088774;28;20215;-81
2023/07/16 07:22:46;;;;;;;5.53;1.90;;;;;;;23.37;48.09;95800.63;5086446;28;20197;-83
2023/07/16 07:25:11;;;;;;;8.27;2.22;;;;;;;22.86;49.04;95807.84;5071329;28;20244;-84
2023/07/16 07:27:36;;;;;;;4.60;1.58;;;;;;;22.80;49.63;95814.00;5077210;28;20180;-84
2023/07/16 07:30:02;;;;;;;4.97;1.88;;;;;;;22.11;51.91;95807.00;5093201;28;20636;-84
2023/07/16 07:32:29;;;;;;;4.38;1.95;;;;;;;21.95;52.54;95816.19;5080464;28;20225;-84
2023/07/16 07:34:54;;;;;;;3.63;1.90;;;;;;;21.69;53.30;95814.50;5086244;28;20185;-84
2023/07/16 07:37:19;;;;;;;4.55;1.67;;;;;;;21.95;53.04;95823.31;5072835;28;20724;-84
2023/07/16 07:39:47;;;;;;;5.15;1.92;;;;;;;21.59;53.22;95816.78;5076370;28;20216;-79
2023/07/16 07:42:13;;;;;;;4.00;1.80;;;;;;;21.35;53.28;95815.63;5096060;28;20569;-84
2023/07/16 07:44:38;;;;;;;4.72;1.70;;;;;;;22.44;50.59;95814.72;5076572;28;20184;-83
2023/07/16 07:47:04;;;;;;;5.95;1.75;;;;;;;22.55;50.16;95829.06;5072329;28;20185;-84
2023/07/16 07:49:30;;;;;;;4.43;1.67;;;;;;;22.30;50.38;95829.84;5089568;28;20655;-84
2023/07/16 07:51:55;;;;;;;5.20;2.10;;;;;;;22.21;50.13;95836.44;5070054;28;20218;-84
2023/07/16 07:54:20;;;;;;;5.50;1.45;;;;;;;22.06;50.70;95841.16;5059602;28;20193;-83
2023/07/16 07:56:46;;;;;;;4.40;1.83;;;;;;;21.86;51.24;95828.03;5058965;28;20273;-84
2023/07/16 07:59:11;;;;;;;6.63;2.08;;;;;;;22.10;50.40;95833.66;5061973;28;20204;-77
2023/07/16 08:01:37;;;;;;;3.08;1.83;;;;;;;22.81;49.12;95820.91;5080457;28;20238;-77
2023/07/16 08:04:02;;;;;;;3.67;1.77;;;;;;;23.11;48.70;95820.25;5088743;28;20181;-75
2023/07/16 08:06:27;;;;;;;6.68;1.80;;;;;;;22.64;49.47;95819.84;5088038;28;20268;-77
2023/07/16 08:08:53;;;;;;;4.25;2.05;;;;;;;22.43;50.97;95826.28;5070623;28;20193;-77
2023/07/16 08:11:18;;;;;;;4.88;1.75;;;;;;;22.37;50.48;95842.25;5085016;28;20220;-76
2023/07/16 08:13:43;;;;;;;7.43;2.00;;;;;;;22.55;50.46;95839.66;5092789;28;20185;-76
2023/07/16 08:16:09;;;;;;;5.70;1.92;;;;;;;22.81;49.99;95831.50;5080014;28;20224;-76
2023/07/16 08:18:35;;;;;;;4.28;2.10;;;;;;;22.62;48.90;95821.91;5068196;28;20677;-77
2023/07/16 08:21:00;;;;;;;4.50;1.80;;;;;;;23.14;48.97;95811.88;5085439;28;20200;-77
2023/07/16 08:23:25;;;;;;;5.07;1.98;;;;;;;24.36;46.41;95815.28;5088682;28;20184;-78
2023/07/16 08:25:51;;;;;;;5.40;2.00;;;;;;;24.39;44.66;95811.38;5086950;28;20214;-76
2023/07/16 08:28:16;;;;;;;4.90;1.80;;;;;;;25.19;44.18;95822.34;5070949;28;20176;-81
2023/07/16 08:30:42;;;;;;;6.88;1.70;;;;;;;25.38;44.05;95821.16;5095590;28;20191;-80
2023/07/16 08:33:07;;;;;;;3.97;1.83;;;;;;;26.06;41.72;95824.94;5091372;28;20254;-80
2023/07/16 08:35:32;;;;;;;3.58;1.65;;;;;;;24.98;42.42;95802.41;5082781;28;20204;-83
2023/07/16 08:37:58;;;;;;;3.95;1.63;;;;;;;24.93;43.24;95809.50;5072827;28;20598;-83
2023/07/16 08:40:23;;;;;;;3.63;1.67;;;;;;;24.98;41.92;95804.28;5067944;28;20289;-83
2023/07/16 08:42:49;;;;;;;3.55;1.58;;;;;;;25.22;41.63;95821.06;5064777;28;20216;-84
2023/07/16 08:45:15;;;;;;;4.93;1.85;;;;;;;24.94;42.71;95840.31;5063075;28;20299;-84
2023/07/16 08:47:40;;;;;;;5.80;1.92;;;;;;;24.85;43.96;95835.34;5062102;28;20173;-84
2023/07/16 08:50:06;;;;;;;3.47;1.70;;;;;;;25.01;43.34;95836.53;5061363;28;20235;-84
2023/07/16 08:52:31;;;;;;;4.07;1.80;;;;;;;24.68;43.25;95837.06;5056197;28;20209;-84
2023/07/16 08:54:57;;;;;;;5.45;2.13;;;;;;;24.44;43.66;95838.84;5061931;28;20285;-84
2023/07/16 08:57:23;;;;;;;3.65;1.80;;;;;;;24.18;44.36;95836.53;5083075;28;20180;-84
2023/07/16 08:59:49;;;;;;;2.47;1.70;;;;;;;23.78;45.59;95842.38;5063675;28;20654;-84
2023/07/16 09:02:18;;;;;;;4.32;1.85;;;;;;;23.41;45.77;95831.78;5067535;28;20201;-84
2023/07/16 09:04:45;;;;;;;4.85;2.20;;;;;;;23.41;46.02;95831.78;5072513;28;20181;-84
2023/07/16 09:07:11;;;;;;;3.47;1.60;;;;;;;22.74;47.22;95827.28;5057702;28;20239;-84
2023/07/16 09:09:36;;;;;;;4.95;1.70;;;;;;;22.82;47.90;95833.13;5079659;28;20188;-84
2023/07/16 09:12:02;;;;;;;3.13;1.80;;;;;;;22.88;48.10;95842.06;5064960;28;20205;-83
2023/07/16 09:14:27;;;;;;;4.93;2.20;;;;;;;23.06;48.76;95830.72;5059593;28;20223;-84
2023/07/16 09:16:53;;;;;;;4.10;1.98;;;;;;;23.33;47.54;95834.72;5075582;28;20180;-84
2023/07/16 09:19:19;;;;;;;7.53;2.03;;;;;;;23.34;48.09;95835.53;5056011;28;20243;-84
2023/07/16 09:21:52;;;;;;;5.53;1.95;;;;;;;23.43;46.94;95835.00;5076240;28;20205;-83
2023/07/16 09:24:18;;;;;;;3.38;1.92;;;;;;;23.27;47.20;95834.78;5061424;28;20173;-83
2023/07/16 09:26:52;;;;;;;4.82;2.20;;;;;;;23.43;46.72;95834.19;5080817;28;20553;-83
2023/07/16 09:29:18;;;;;;;5.65;2.00;;;;;;;23.71;47.38;95837.16;5074615;28;20635;-83
2023/07/16 09:31:57;;;;;;;4.30;1.88;;;;;;;23.66;46.88;95837.00;5052955;28;20696;-83
2023/07/16 09:34:23;;;;;;;4.82;1.80;;;;;;;23.72;45.03;95832.66;5067497;28;20184;-82
2023/07/16 09:36:49;;;;;;;4.53;1.80;;;;;;;24.16;44.38;95820.06;5083228;28;20176;-80
2023/07/16 09:39:17;;;;;;;3.55;1.60;;;;;;;24.14;44.87;95832.75;5079406;28;20216;-84
2023/07/16 09:41:43;;;;;;;4.20;1.77;;;;;;;24.24;45.13;95835.66;5064822;28;20200;-84
2023/07/16 09:44:09;;;;;;;6.97;1.90;;;;;;;24.69;44.26;95837.88;5056119;28;20651;-83
2023/07/16 09:46:34;;;;;;;2.38;1.70;;;;;;;24.88;43.65;95836.72;5074028;28;20259;-85
2023/07/16 09:49:00;;;;;;;6.53;1.90;;;;;;;24.39;43.71;95832.63;5078992;28;20210;-84
2023/07/16 09:51:25;;;;;;;8.02;2.10;;;;;;;23.96;44.56;95839.72;5083066;28;20633;-83
2023/07/16 09:53:52;;;;;;;5.22;1.75;;;;;;;23.91;45.86;95841.41;5057824;28;20204;-83
2023/07/16 09:56:18;;;;;;;3.78;1.73;;;;;;;24.44;44.47;95838.03;5050544;28;20206;-85
2023/07/16 09:58:43;;;;;;;4.82;1.90;;;;;;;23.66;45.68;95836.19;5071991;28;20201;-82
2023/07/16 10:01:09;;;;;;;3.72;1.83;;;;;;;24.08;45.15;95841.59;5060771;28;20207;-82
2023/07/16 10:03:34;;;;;;;3.25;1.73;;;;;;;24.65;43.72;95844.66;5056037;28;20185;-83
2023/07/16 10:06:08;;;;;;;3.70;2.00;;;;;;;24.89;42.41;95838.34;5074993;28;20181;-82
2023/07/16 10:08:37;;;;;;;4.07;2.20;;;;;;;24.55;41.79;95838.06;5051558;28;20199;-82
2023/07/16 10:11:02;;;;;;;5.93;1.90;;;;;;;24.02;44.32;95846.75;5065018;28;20207;-83
2023/07/16 10:13:28;;;;;;;4.22;2.10;;;;;;;24.41;44.63;95841.97;5057466;28;20177;-84
2023/07/16 10:15:55;;;;;;;3.40;1.83;;;;;;;24.94;43.10;95841.13;5064797;28;20682;-82
2023/07/16 10:18:24;;;;;;;4.38;2.03;;;;;;;25.18;42.30;95833.16;5057694;28;20196;-84
2023/07/16 10:20:51;;;;;;;5.00;1.70;;;;;;;25.04;41.55;95828.09;5062307;28;20226;-83
2023/07/16 10:23:18;;;;;;;5.95;1.80;;;;;;;24.68;40.61;95823.78;5079329;28;20192;-82
2023/07/16 10:26:05;;;;;;;5.32;2.47;;;;;;;24.99;41.75;95821.81;5079742;28;20407;-84
2023/07/16 10:28:32;;;;;;;4.63;2.00;;;;;;;25.69;40.90;95827.09;5067789;28;20219;-82
2023/07/16 10:30:58;;;;;;;4.50;1.70;;;;;;;24.82;41.95;95824.34;5070523;28;20208;-82
2023/07/16 10:33:23;;;;;;;4.72;2.17;;;;;;;25.42;42.12;95826.78;5041602;28;20185;-82
2023/07/16 10:35:48;;;;;;;3.38;2.08;;;;;;;25.09;41.07;95819.41;5076350;28;20227;-83
2023/07/16 10:38:17;;;;;;;3.45;1.98;;;;;;;24.37;43.63;95824.88;5095198;28;20391;-83
2023/07/16 10:40:43;;;;;;;2.80;1.92;;;;;;;24.25;43.08;95826.66;5084953;28;20196;-84
2023/07/16 10:43:09;;;;;;;5.40;2.00;;;;;;;24.20;42.35;95803.44;5092846;28;20208;-85
2023/07/16 10:45:34;;;;;;;5.25;1.90;;;;;;;24.67;42.23;95810.75;5079934;28;20189;-85
2023/07/16 10:47:59;;;;;;;4.15;2.00;;;;;;;24.83;41.26;95823.34;5079016;28;20205;-85
2023/07/16 10:50:25;;;;;;;4.13;1.90;;;;;;;24.86;42.61;95823.69;5081437;28;20185;-85
2023/07/16 10:52:54;;;;;;;4.63;1.90;;;;;;;24.45;42.52;95816.56;5069979;28;20201;-84
2023/07/16 10:55:20;;;;;;;3.13;1.90;;;;;;;24.94;42.02;95814.56;5084147;28;20183;-85
2023/07/16 10:57:50;;;;;;;4.57;2.00;;;;;;;25.34;41.82;95821.84;5110724;28;20189;-85
2023/07/16 11:00:18;;;;;;;3.53;2.10;;;;;;;25.20;42.74;95818.63;5084811;28;20560;-83
2023/07/16 11:02:44;;;;;;;3.65;1.90;;;;;;;25.08;40.82;95813.31;5090122;28;20231;-84
2023/07/16 11:05:11;;;;;;;3.85;1.70;;;;;;;24.33;42.31;95815.75;5071441;28;20181;-82
2023/07/16 11:07:36;;;;;;;2.70;1.70;;;;;;;24.52;41.33;95822.59;5062928;28;20177;-83
2023/07/16 11:10:02;;;;;;;3.63;1.75;;;;;;;24.40;42.08;95813.00;5084693;28;20662;-81
2023/07/16 11:12:28;;;;;;;2.20;1.77;;;;;;;24.49;41.78;95817.75;5079888;28;20204;-82
2023/07/16 11:14:55;;;;;;;3.00;1.90;;;;;;;24.39;42.05;95816.69;5063217;28;20231;-82
2023/07/16 11:17:22;;;;;;;5.80;2.35;;;;;;;25.53;40.63;95810.03;5085114;28;20176;-82
2023/07/16 11:19:49;;;;;;;3.17;1.73;;;;;;;25.41;40.84;95819.88;5057566;28;20212;-78
2023/07/16 11:22:14;;;;;;;3.78;1.90;;;;;;;25.86;40.57;95812.03;5086316;28;20212;-78
2023/07/16 11:24:42;;;;;;;2.83;1.80;;;;;;;25.57;39.97;95805.84;5072608;28;20185;-79
2023/07/16 11:27:15;;;;;;;3.95;1.67;;;;;;;26.32;39.25;95810.19;5087672;28;20642;-80
2023/07/16 11:29:51;;;;;;;3.20;1.90;;;;;;;26.34;39.85;95817.97;5080952;28;20178;-80